createdAt,value
2023-03-17T00:03:23.344Z,73.86
2023-03-17T00:07:51.480Z,73.66
2023-03-17T00:11:42.920Z,73.34
2023-03-17T00:16:22.114Z,73.29
2023-03-17T00:20:41.858Z,73.00
2023-03-17T00:24:43.661Z,73.21
2023-03-17T00:29:27.428Z,73.06
2023-03-17T00:33:53.283Z,73.31
2023-03-17T00:38:37.099Z,73.11
2023-03-17T00:47:00.949Z,73.32
2023-03-17T00:51:19.130Z,73.47
2023-03-17T00:55:27.357Z,73.48
2023-03-17T00:59:25.927Z,73.60
2023-03-17T01:03:34.696Z,73.32
2023-03-17T01:08:00.366Z,73.05
2023-03-17T01:12:04.124Z,73.49
2023-03-17T01:16:38.409Z,73.38
2023-03-17T01:20:42.202Z,73.41
2023-03-17T01:25:06.061Z,73.40
2023-03-17T01:29:16.542Z,72.99
2023-03-17T01:33:06.044Z,73.70
2023-03-17T01:37:44.891Z,73.30
2023-03-17T01:42:08.536Z,73.38
2023-03-17T01:46:33.847Z,73.62
2023-03-17T01:51:02.359Z,74.40
2023-03-17T01:55:36.600Z,73.49
2023-03-17T02:00:02.298Z,73.59
2023-03-17T02:04:27.891Z,73.51
2023-03-17T02:08:51.999Z,73.39
2023-03-17T02:13:05.931Z,73.36
2023-03-17T02:17:36.257Z,73.68
2023-03-17T02:21:46.308Z,73.47
2023-03-17T02:26:25.697Z,73.67
2023-03-17T02:31:09.678Z,73.41
2023-03-17T02:35:53.385Z,73.06
2023-03-17T02:40:37.683Z,72.85
2023-03-17T02:45:03.526Z,72.72
2023-03-17T02:49:29.227Z,72.72
2023-03-17T02:54:00.628Z,72.82
2023-03-17T02:58:21.527Z,72.58
2023-03-17T03:08:14.231Z,72.53
2023-03-17T03:12:38.852Z,72.17
2023-03-17T03:16:57.251Z,71.63
2023-03-17T03:21:00.974Z,71.20
2023-03-17T03:25:26.642Z,70.94
2023-03-17T03:29:48.443Z,70.65
2023-03-17T03:33:54.464Z,70.27
2023-03-17T03:38:38.907Z,69.86
2023-03-17T03:43:13.022Z,69.81
2023-03-17T03:47:41.991Z,69.63
2023-03-17T03:51:49.541Z,69.59
2023-03-17T03:56:17.047Z,69.36
2023-03-17T04:00:41.231Z,68.77
2023-03-17T04:05:05.886Z,68.74
2023-03-17T04:09:49.637Z,69.06
2023-03-17T04:13:57.651Z,68.89
2023-03-17T04:18:21.460Z,68.34
2023-03-17T04:23:00.677Z,68.30
2023-03-17T04:27:19.451Z,67.68
2023-03-17T04:31:23.218Z,67.70
2023-03-17T04:35:47.388Z,67.49
2023-03-17T04:39:55.134Z,67.64
2023-03-17T04:48:06.847Z,67.35
2023-03-17T04:52:26.943Z,66.39
2023-03-17T04:57:10.954Z,65.81
2023-03-17T05:01:39.275Z,65.23
2023-03-17T05:06:00.360Z,65.00
2023-03-17T05:10:04.316Z,64.57
2023-03-17T05:14:24.541Z,64.42
2023-03-17T05:18:50.111Z,64.11
2023-03-17T05:23:22.046Z,64.17
2023-03-17T05:27:53.414Z,63.16
2023-03-17T05:32:37.546Z,63.30
2023-03-17T05:37:21.115Z,62.74
2023-03-17T05:41:45.000Z,62.94
2023-03-17T05:46:24.086Z,61.40
2023-03-17T05:50:50.026Z,61.42
2023-03-17T05:55:34.530Z,59.48
2023-03-17T06:00:15.488Z,57.88
2023-03-17T06:04:35.889Z,57.71
2023-03-17T06:08:59.768Z,57.56
2023-03-17T06:13:38.768Z,56.10
2023-03-17T06:17:42.778Z,55.97
2023-03-17T06:21:54.455Z,54.99
2023-03-17T06:26:21.320Z,55.22
2023-03-17T06:30:45.628Z,54.50
2023-03-17T06:35:12.975Z,53.81
2023-03-17T06:39:16.781Z,55.16
2023-03-17T06:43:42.254Z,54.57
2023-03-17T06:48:06.724Z,53.59
2023-03-17T06:52:26.921Z,52.88
2023-03-17T06:56:45.155Z,52.74
2023-03-17T07:00:57.230Z,50.80
2023-03-17T07:05:04.983Z,50.76
2023-03-17T07:09:12.035Z,50.96
2023-03-17T07:17:08.005Z,49.47
2023-03-17T07:21:47.809Z,48.30
2023-03-17T07:26:13.674Z,48.27
2023-03-17T07:30:33.780Z,47.93
2023-03-17T07:34:50.874Z,46.15
2023-03-17T07:38:54.541Z,46.05
2023-03-17T07:42:39.844Z,45.37
2023-03-17T07:47:05.298Z,44.54
2023-03-17T07:51:36.949Z,45.63
2023-03-17T07:55:58.096Z,44.81
2023-03-17T08:00:16.619Z,44.67
2023-03-17T08:04:20.730Z,44.33
2023-03-17T08:08:44.490Z,44.45
2023-03-17T08:13:15.776Z,43.13
2023-03-17T08:17:28.199Z,42.74
2023-03-17T08:21:52.015Z,43.49
2023-03-17T08:26:41.398Z,42.58
2023-03-17T08:31:13.979Z,41.96
2023-03-17T08:35:56.586Z,41.89
2023-03-17T08:40:16.207Z,42.23
2023-03-17T08:44:40.098Z,42.09
2023-03-17T08:48:53.522Z,41.44
2023-03-17T08:53:05.814Z,41.54
2023-03-17T08:57:31.459Z,41.31
2023-03-17T09:01:47.957Z,41.53
2023-03-17T09:05:58.209Z,41.44
2023-03-17T09:10:22.713Z,41.27
2023-03-17T09:14:26.848Z,41.06
2023-03-17T09:18:38.443Z,40.55
2023-03-17T09:22:42.080Z,41.27
2023-03-17T09:27:09.556Z,40.51
2023-03-17T09:31:35.061Z,39.89
2023-03-17T09:35:58.794Z,39.86
2023-03-17T09:40:42.570Z,40.09
2023-03-17T09:45:10.695Z,40.68
2023-03-17T09:49:38.285Z,39.44
2023-03-17T09:53:43.764Z,38.96
2023-03-17T09:58:15.089Z,39.37
2023-03-17T10:02:11.739Z,38.73
2023-03-17T10:06:01.285Z,38.65
2023-03-17T10:10:17.141Z,38.05
2023-03-17T10:18:10.847Z,37.08
2023-03-17T10:22:14.232Z,35.84
2023-03-17T10:25:46.134Z,37.40
2023-03-17T10:29:56.516Z,36.47
2023-03-17T10:33:27.874Z,35.82
2023-03-17T10:37:43.623Z,35.88
2023-03-17T10:41:26.189Z,37.39
2023-03-17T10:45:33.928Z,37.49
2023-03-17T10:49:44.860Z,36.89
2023-03-17T10:53:59.514Z,35.72
2023-03-17T10:57:19.513Z,35.30
2023-03-17T11:01:40.550Z,34.74
2023-03-17T11:06:00.515Z,34.83
2023-03-17T11:10:08.773Z,34.91
2023-03-17T11:13:42.396Z,34.58
2023-03-17T11:17:44.867Z,34.93
2023-03-17T11:21:36.501Z,34.06
2023-03-17T11:25:26.315Z,33.66
2023-03-17T11:29:36.794Z,33.79
2023-03-17T11:33:13.650Z,34.71
2023-03-17T11:37:05.844Z,33.18
2023-03-17T11:41:13.552Z,33.86
2023-03-17T11:45:27.140Z,33.01
2023-03-17T11:49:48.951Z,33.10
2023-03-17T11:54:02.457Z,32.78
2023-03-17T11:57:25.917Z,33.36
2023-03-17T12:00:57.321Z,33.34
2023-03-17T12:04:52.684Z,33.34
2023-03-17T12:09:10.944Z,33.17
2023-03-17T12:13:14.625Z,33.91
2023-03-17T12:17:01.517Z,33.73
2023-03-17T12:20:56.895Z,33.55
2023-03-17T12:24:46.261Z,33.20
2023-03-17T12:28:51.370Z,34.29
2023-03-17T12:32:38.695Z,34.11
2023-03-17T12:36:06.610Z,34.01
2023-03-17T12:39:37.254Z,33.72
2023-03-17T12:43:41.899Z,34.23
2023-03-17T12:47:36.642Z,34.08
2023-03-17T12:51:40.674Z,34.12
2023-03-17T12:55:40.048Z,34.37
2023-03-17T12:59:23.363Z,33.46
2023-03-17T13:03:41.022Z,33.26
2023-03-17T13:07:41.547Z,32.24
2023-03-17T13:11:44.204Z,32.18
2023-03-17T13:16:28.479Z,32.04
2023-03-17T13:20:26.991Z,32.10
2023-03-17T13:24:34.145Z,30.92
2023-03-17T13:29:15.935Z,31.91
2023-03-17T13:33:50.527Z,32.23
2023-03-17T13:38:21.897Z,31.36
2023-03-17T13:49:30.937Z,31.05
2023-03-17T13:53:57.543Z,31.13
2023-03-17T13:57:54.234Z,31.25
2023-03-17T14:01:21.748Z,31.87
2023-03-17T14:05:38.631Z,31.56
2023-03-17T14:09:51.292Z,31.88
2023-03-17T14:14:07.452Z,31.56
2023-03-17T14:18:19.122Z,31.92
2023-03-17T14:22:00.771Z,31.09
2023-03-17T14:25:40.184Z,31.70
2023-03-17T14:29:04.978Z,31.79
2023-03-17T14:32:43.553Z,32.05
2023-03-17T14:36:08.452Z,31.81
2023-03-17T14:40:08.609Z,31.71
2023-03-17T14:43:43.493Z,31.60
2023-03-17T14:47:15.949Z,31.49
2023-03-17T14:51:28.728Z,31.94
2023-03-17T14:55:35.539Z,32.43
2023-03-17T14:59:39.707Z,32.24
2023-03-17T15:03:43.448Z,32.76
2023-03-17T15:08:16.451Z,32.99
2023-03-17T15:12:19.749Z,33.28
2023-03-17T15:15:48.014Z,32.39
2023-03-17T15:19:47.704Z,32.76
2023-03-17T15:23:57.425Z,33.07
2023-03-17T15:28:20.987Z,33.22
2023-03-17T15:32:48.631Z,33.06
2023-03-17T15:37:12.954Z,33.26
2023-03-17T15:41:34.917Z,33.13
2023-03-17T15:45:45.514Z,33.53
2023-03-17T15:49:57.217Z,34.00
2023-03-17T15:54:23.049Z,34.58
2023-03-17T15:58:46.738Z,35.23
2023-03-17T16:03:16.961Z,35.94
2023-03-17T16:07:33.059Z,35.95
2023-03-17T16:11:37.912Z,36.26
2023-03-17T16:16:20.946Z,36.48
2023-03-17T16:21:04.598Z,36.93
2023-03-17T16:25:09.266Z,37.14
2023-03-17T16:29:21.550Z,37.81
2023-03-17T16:33:48.956Z,38.36
2023-03-17T16:38:17.285Z,38.45
2023-03-17T16:49:24.945Z,39.42
2023-03-17T16:54:08.629Z,40.63
2023-03-17T16:58:12.717Z,40.87
2023-03-17T17:02:36.711Z,41.11
2023-03-17T17:07:15.602Z,41.10
2023-03-17T17:11:46.935Z,41.55
2023-03-17T17:16:05.895Z,41.53
2023-03-17T17:20:25.817Z,41.84
2023-03-17T17:24:45.953Z,41.63
2023-03-17T17:29:11.607Z,41.80
2023-03-17T17:33:55.440Z,42.77
2023-03-17T17:38:19.155Z,42.51
2023-03-17T17:42:44.744Z,42.59
2023-03-17T17:47:30.022Z,42.97
2023-03-17T17:51:35.634Z,43.12
2023-03-17T17:55:39.445Z,43.32
2023-03-17T18:00:03.122Z,43.64
2023-03-17T18:04:30.747Z,43.99
2023-03-17T18:08:58.266Z,43.94
2023-03-17T18:13:10.335Z,44.74
2023-03-17T18:17:16.277Z,45.09
2023-03-17T18:21:39.926Z,45.15
2023-03-17T18:26:23.862Z,45.33
2023-03-17T18:30:48.296Z,45.30
2023-03-17T18:34:57.248Z,46.36
2023-03-17T18:39:08.897Z,46.11
2023-03-17T18:43:14.676Z,46.36
2023-03-17T18:47:37.711Z,46.68
2023-03-17T18:51:41.881Z,46.88
2023-03-17T18:55:47.850Z,46.73
2023-03-17T18:59:51.603Z,46.91
2023-03-17T19:04:35.362Z,47.23
2023-03-17T19:09:13.898Z,47.40
2023-03-17T19:13:30.478Z,48.14
2023-03-17T19:18:14.262Z,48.40
2023-03-17T19:22:39.714Z,48.82
2023-03-17T19:27:19.459Z,48.56
2023-03-17T19:31:48.631Z,48.99
2023-03-17T19:36:34.441Z,49.28
2023-03-17T19:40:56.376Z,50.52
2023-03-17T19:45:40.676Z,50.12
2023-03-17T19:50:05.075Z,50.34
2023-03-17T19:54:36.649Z,50.49
2023-03-17T19:59:08.066Z,50.01
2023-03-17T20:03:51.807Z,49.99
2023-03-17T20:08:16.360Z,49.70
2023-03-17T20:12:40.117Z,50.96
2023-03-17T20:17:24.181Z,50.64
2023-03-17T20:21:43.887Z,50.55
2023-03-17T20:26:09.537Z,50.49
2023-03-17T20:30:35.396Z,50.89
2023-03-17T20:35:01.361Z,51.23
2023-03-17T20:39:08.898Z,51.46
2023-03-17T20:43:16.978Z,51.36
2023-03-17T20:47:40.995Z,51.11
2023-03-17T20:52:19.951Z,50.97
2023-03-17T20:56:48.903Z,50.99
2023-03-17T21:01:12.775Z,50.90
2023-03-17T21:05:20.770Z,51.25
2023-03-17T21:10:04.618Z,51.64
2023-03-17T21:18:24.503Z,52.03
2023-03-17T21:23:03.843Z,51.81
2023-03-17T21:27:35.814Z,51.89
2023-03-17T21:32:01.392Z,52.01
2023-03-17T21:36:29.268Z,52.47
2023-03-17T21:40:35.602Z,52.34
2023-03-17T21:45:19.597Z,52.46
2023-03-17T21:49:47.491Z,52.48
2023-03-17T21:54:19.046Z,52.52
2023-03-17T21:58:24.099Z,52.42
2023-03-17T22:02:51.863Z,52.58
2023-03-17T22:07:13.360Z,52.61
2023-03-17T22:11:37.104Z,52.62
2023-03-17T22:15:57.765Z,52.88
2023-03-17T22:19:54.145Z,52.95
2023-03-17T22:24:33.287Z,53.15
2023-03-17T22:29:01.191Z,53.36
2023-03-17T22:33:21.195Z,53.65
2023-03-17T22:37:24.465Z,53.41
2023-03-17T22:41:49.999Z,53.32
2023-03-17T22:46:16.083Z,53.22
2023-03-17T22:50:39.891Z,52.99
2023-03-17T22:55:23.886Z,53.27
2023-03-17T22:59:49.395Z,52.84
2023-03-17T23:04:25.796Z,52.99
2023-03-17T23:08:29.453Z,52.96
2023-03-17T23:13:08.740Z,52.29
2023-03-17T23:17:33.647Z,52.31
2023-03-17T23:22:13.268Z,52.38
2023-03-17T23:26:19.274Z,52.64
2023-03-17T23:30:58.188Z,52.76
2023-03-17T23:35:37.660Z,53.02
2023-03-17T23:39:41.478Z,53.08
2023-03-17T23:43:49.197Z,53.02
2023-03-17T23:48:33.273Z,52.82
2023-03-17T23:52:38.670Z,52.44
2023-03-17T23:56:42.331Z,52.75
